This is the latest recevied weather packets stored in our database for station/object EA2FBA-10. If no packets are shown the sender has not sent any weather packets the latest 10 day(s).
| Time | Temp. | Humidity | Pressure | Rain* | Wind** | Luminosity | Snow |
|---|---|---|---|---|---|---|---|
| 1788105338 | 22.78° C | 62% | 956.6 hPa | - | - | - | - |
| 1788105325 | 22.78° C | 62% | 956.6 hPa | - | - | - | - |
| 1788104435 | 23.33° C | 60% | 956.5 hPa | - | - | - | - |
| 1788104425 | 23.33° C | 60% | 956.5 hPa | - | - | - | - |
| 1788103525 | 23.33° C | 60% | 956 hPa | - | - | - | - |
| 1788102634 | 25° C | 57% | 956.1 hPa | - | - | - | - |
| 1788102625 | 25° C | 57% | 956.1 hPa | - | - | - | - |
| 1788101734 | 25.56° C | 55% | 956.1 hPa | - | - | - | - |
| 1788101725 | 25.56° C | 55% | 956.1 hPa | - | - | - | - |
| 1788100834 | 26.11° C | 53% | 955.8 hPa | - | - | - | - |
| 1788100825 | 26.11° C | 53% | 955.8 hPa | - | - | - | - |
| 1788099941 | 26.11° C | 53% | 955.6 hPa | - | - | - | - |
| 1788099925 | 26.11° C | 53% | 955.6 hPa | - | - | - | - |
| 1788099034 | 25.56° C | 54% | 955.5 hPa | - | - | - | - |
| 1788099025 | 25.56° C | 54% | 955.5 hPa | - | - | - | - |
| 1788098134 | 25.56° C | 53% | 955.4 hPa | - | - | - | - |
| 1788098124 | 25.56° C | 53% | 955.4 hPa | - | - | - | - |
| 1788097234 | 25.56° C | 53% | 955.4 hPa | - | - | - | - |
| 1788097226 | 25.56° C | 53% | 955.4 hPa | - | - | - | - |
| 1788096324 | 25.56° C | 52% | 955 hPa | - | - | - | - |
| 1788095433 | 25° C | 53% | 955.1 hPa | - | - | - | - |
| 1788095424 | 25° C | 53% | 955.1 hPa | - | - | - | - |
| 1788094524 | 24.44° C | 54% | 955 hPa | - | - | - | - |
| 1788093633 | 25.56° C | 44% | 955 hPa | - | - | - | - |
| 1788093624 | 25.56° C | 44% | 955 hPa | - | - | - | - |
* Rain since midnight (hover to see other rain measurements)
** Current wind speed in m/s (hover to see current wind gust speed)